createdAt,value
2018-05-13T00:02:22.838Z,22.00
2018-05-13T00:04:53.082Z,22.90
2018-05-13T00:07:23.289Z,21.03
2018-05-13T00:09:53.613Z,21.57
2018-05-13T00:12:24.678Z,23.87
2018-05-13T00:14:54.944Z,20.87
2018-05-13T00:17:26.568Z,20.73
2018-05-13T00:19:56.812Z,21.60
2018-05-13T00:22:27.754Z,22.03
2018-05-13T00:25:19.593Z,22.37
2018-05-13T00:27:49.821Z,20.77
2018-05-13T00:30:20.034Z,21.37
2018-05-13T00:32:51.593Z,21.90
2018-05-13T00:35:22.576Z,22.00
2018-05-13T00:37:52.758Z,20.60
2018-05-13T00:40:23.042Z,21.43
2018-05-13T00:42:53.399Z,21.20
2018-05-13T00:45:23.639Z,19.77
2018-05-13T00:48:12.985Z,19.73
2018-05-13T00:50:43.371Z,21.17
2018-05-13T00:53:13.529Z,22.30
2018-05-13T00:55:43.812Z,22.60
2018-05-13T00:58:19.627Z,21.60
2018-05-13T01:00:49.945Z,19.50
2018-05-13T01:03:20.191Z,20.90
2018-05-13T01:05:50.458Z,20.90
2018-05-13T01:08:20.849Z,20.70
2018-05-13T01:10:51.262Z,21.03
2018-05-13T01:13:27.410Z,21.67
2018-05-13T01:15:57.762Z,24.10
2018-05-13T01:18:28.081Z,22.90
2018-05-13T01:20:58.349Z,23.90
2018-05-13T01:23:29.454Z,23.83
2018-05-13T01:25:59.650Z,21.57
2018-05-13T01:28:29.839Z,23.53
2018-05-13T01:31:00.129Z,22.70
2018-05-13T01:33:30.381Z,22.00
2018-05-13T01:36:00.769Z,22.93
2018-05-13T01:38:30.991Z,25.40
2018-05-13T01:41:01.285Z,24.43
2018-05-13T01:43:31.586Z,23.50
2018-05-13T01:46:01.936Z,22.37
2018-05-13T01:48:32.893Z,23.80
2018-05-13T01:51:03.029Z,21.43
2018-05-13T01:53:33.274Z,22.83
2018-05-13T01:56:04.919Z,20.53
2018-05-13T01:58:35.253Z,22.00
2018-05-13T02:01:05.420Z,20.80
2018-05-13T02:03:35.664Z,20.83
2018-05-13T02:06:05.942Z,20.37
2018-05-13T02:08:36.153Z,21.37
2018-05-13T02:11:06.302Z,20.87
2018-05-13T02:13:36.410Z,21.63
2018-05-13T02:16:07.367Z,23.90
2018-05-13T02:18:37.501Z,22.43
2018-05-13T02:21:07.610Z,21.40
2018-05-13T02:23:37.810Z,24.10
2018-05-13T02:26:07.984Z,23.90
2018-05-13T02:28:38.154Z,23.20
2018-05-13T02:31:12.050Z,22.30
2018-05-13T02:33:42.225Z,23.77
2018-05-13T02:36:12.753Z,23.70
2018-05-13T02:38:43.273Z,22.67
2018-05-13T02:41:13.418Z,23.37
2018-05-13T02:43:43.662Z,24.30
2018-05-13T02:46:16.231Z,22.70
2018-05-13T02:48:46.464Z,22.87
2018-05-13T02:51:16.638Z,21.40
2018-05-13T02:53:47.109Z,21.33
2018-05-13T02:56:17.465Z,22.63
2018-05-13T02:58:48.413Z,20.63
2018-05-13T03:01:18.633Z,21.53
2018-05-13T03:03:49.549Z,22.67
2018-05-13T03:06:35.450Z,20.47
2018-05-13T03:09:06.846Z,22.10
2018-05-13T03:11:37.087Z,22.07
2018-05-13T03:14:07.694Z,19.77
2018-05-13T03:16:37.833Z,21.40
2018-05-13T03:19:08.111Z,21.70
2018-05-13T03:21:38.447Z,21.37
2018-05-13T03:24:08.733Z,22.70
2018-05-13T03:26:43.517Z,19.63
2018-05-13T03:29:13.985Z,20.93
2018-05-13T03:31:44.147Z,21.80
2018-05-13T03:34:14.297Z,19.40
2018-05-13T03:36:44.589Z,20.10
2018-05-13T03:39:15.144Z,20.30
2018-05-13T03:41:45.338Z,20.00
2018-05-13T03:44:15.541Z,20.20
2018-05-13T03:46:45.914Z,19.80
2018-05-13T03:49:16.078Z,20.97
2018-05-13T03:51:46.281Z,22.80
2018-05-13T03:54:16.462Z,21.50
2018-05-13T03:56:46.618Z,23.57
2018-05-13T03:59:16.765Z,21.90
2018-05-13T04:01:46.979Z,20.53
2018-05-13T04:04:17.562Z,22.93
2018-05-13T04:06:47.728Z,22.73
2018-05-13T04:13:40.340Z,23.77
2018-05-13T04:16:29.770Z,21.70
2018-05-13T04:19:00.046Z,22.40
2018-05-13T04:21:30.275Z,23.50
2018-05-13T04:24:00.946Z,21.50
2018-05-13T04:26:31.518Z,22.23
2018-05-13T04:29:01.991Z,21.60
2018-05-13T04:31:36.220Z,23.20
2018-05-13T04:34:06.387Z,23.70
2018-05-13T04:36:36.589Z,22.40
2018-05-13T04:39:12.780Z,22.80
2018-05-13T04:41:46.601Z,22.50
2018-05-13T04:44:29.757Z,23.47
2018-05-13T04:47:12.192Z,23.63
2018-05-13T04:50:04.814Z,23.83
2018-05-13T04:52:40.768Z,23.30
2018-05-13T04:55:16.482Z,24.27
2018-05-13T04:57:52.687Z,22.77
2018-05-13T05:00:30.784Z,23.67
2018-05-13T05:03:09.595Z,26.27
2018-05-13T05:06:00.456Z,24.97
2018-05-13T05:08:38.827Z,25.67
2018-05-13T05:11:15.365Z,23.00
2018-05-13T05:14:02.610Z,23.40
2018-05-13T05:16:44.980Z,25.67
2018-05-13T05:19:31.289Z,23.40
2018-05-13T05:22:44.147Z,23.47
2018-05-13T05:25:20.486Z,24.07
2018-05-13T05:28:00.411Z,24.40
2018-05-13T05:30:32.069Z,24.43
2018-05-13T05:33:02.555Z,25.07
2018-05-13T05:35:32.783Z,22.87
2018-05-13T05:38:03.061Z,24.03
2018-05-13T05:40:33.310Z,24.53
2018-05-13T05:43:03.573Z,23.43
2018-05-13T05:45:33.797Z,24.03
2018-05-13T05:48:04.072Z,22.73
2018-05-13T05:50:40.363Z,23.87
2018-05-13T05:53:10.601Z,22.70
2018-05-13T05:55:40.878Z,24.87
2018-05-13T05:58:12.666Z,23.77
2018-05-13T06:00:43.665Z,24.50
2018-05-13T06:03:14.764Z,22.73
2018-05-13T06:05:51.342Z,23.33
2018-05-13T06:08:21.626Z,23.00
2018-05-13T06:10:51.938Z,22.50
2018-05-13T06:13:22.139Z,23.97
2018-05-13T06:15:58.754Z,23.90
2018-05-13T06:18:29.053Z,26.47
2018-05-13T06:20:59.368Z,24.70
2018-05-13T06:23:30.342Z,24.40
2018-05-13T06:26:00.577Z,23.10
2018-05-13T06:28:30.929Z,23.70
2018-05-13T06:31:01.637Z,23.40
2018-05-13T06:33:31.948Z,24.60
2018-05-13T06:36:02.182Z,23.87
2018-05-13T06:38:32.686Z,22.97
2018-05-13T06:41:03.023Z,24.80
2018-05-13T06:43:33.305Z,23.83
2018-05-13T06:46:03.627Z,23.67
2018-05-13T06:48:34.115Z,23.73
2018-05-13T06:51:05.358Z,22.90
2018-05-13T06:53:35.469Z,23.40
2018-05-13T06:56:05.875Z,23.77
2018-05-13T06:58:38.431Z,22.87
2018-05-13T07:01:08.675Z,22.53
2018-05-13T07:03:39.715Z,23.30
2018-05-13T07:06:09.905Z,22.63
2018-05-13T07:08:40.153Z,23.97
2018-05-13T07:11:22.098Z,23.03
2018-05-13T07:13:52.587Z,22.10
2018-05-13T07:16:22.943Z,23.93
2018-05-13T07:18:53.411Z,21.70
2018-05-13T07:21:23.680Z,21.03
2018-05-13T07:23:53.957Z,23.10
2018-05-13T07:26:35.505Z,21.23
2018-05-13T07:29:05.939Z,22.50
2018-05-13T07:31:36.957Z,22.60
2018-05-13T07:34:07.217Z,21.80
2018-05-13T07:36:37.597Z,21.80
2018-05-13T07:39:07.876Z,21.60
2018-05-13T07:41:38.204Z,21.47
2018-05-13T07:44:09.161Z,21.00
2018-05-13T07:46:39.570Z,20.17
2018-05-13T07:49:09.877Z,20.53
2018-05-13T07:51:40.170Z,21.60
2018-05-13T07:54:10.398Z,22.37
2018-05-13T07:56:42.862Z,23.27
2018-05-13T07:59:13.217Z,21.77
2018-05-13T08:01:43.649Z,21.10
2018-05-13T08:04:14.754Z,20.83
2018-05-13T08:06:45.292Z,21.30
2018-05-13T08:09:24.243Z,20.87
2018-05-13T08:11:56.022Z,19.87
2018-05-13T08:14:28.072Z,19.57
2018-05-13T08:17:08.997Z,20.43
2018-05-13T08:19:39.847Z,18.77
2018-05-13T08:22:11.043Z,20.70
2018-05-13T08:27:20.156Z,19.27
2018-05-13T08:30:04.958Z,19.17
2018-05-13T08:32:35.964Z,19.47
2018-05-13T08:35:06.390Z,18.47
2018-05-13T08:37:53.434Z,18.60
2018-05-13T08:40:23.808Z,19.17
2018-05-13T08:46:13.157Z,17.83
2018-05-13T08:48:43.723Z,17.60
2018-05-13T08:51:14.756Z,19.73
2018-05-13T08:53:50.362Z,20.40
2018-05-13T08:56:21.790Z,18.83
2018-05-13T08:58:52.130Z,18.67
2018-05-13T09:01:22.681Z,18.53
2018-05-13T09:04:10.437Z,18.50
2018-05-13T09:06:40.866Z,19.23
2018-05-13T09:09:14.553Z,18.83
2018-05-13T09:11:45.027Z,17.57
2018-05-13T09:14:16.363Z,18.03
2018-05-13T09:16:46.927Z,18.10
2018-05-13T09:19:18.043Z,17.17
2018-05-13T09:21:48.766Z,17.37
2018-05-13T09:24:19.235Z,19.00
2018-05-13T09:26:56.878Z,19.60
2018-05-13T09:29:28.038Z,19.63
2018-05-13T09:31:59.802Z,19.67
2018-05-13T09:34:31.710Z,17.30
2018-05-13T09:37:03.571Z,18.53
2018-05-13T09:39:34.979Z,17.30
2018-05-13T09:42:06.215Z,17.87
2018-05-13T09:44:37.589Z,19.07
2018-05-13T09:47:08.674Z,17.07
2018-05-13T09:49:39.783Z,18.10
2018-05-13T09:52:11.571Z,15.93
2018-05-13T09:54:47.161Z,17.90
2018-05-13T09:57:18.582Z,16.80
2018-05-13T09:59:51.832Z,17.40
2018-05-13T10:02:23.571Z,16.67
2018-05-13T10:04:55.805Z,15.50
2018-05-13T10:07:27.619Z,15.50
2018-05-13T10:09:59.194Z,16.77
2018-05-13T10:12:31.636Z,15.00
2018-05-13T10:15:03.813Z,14.20
2018-05-13T10:17:34.788Z,17.97
2018-05-13T10:20:06.054Z,17.47
2018-05-13T10:22:38.077Z,17.40
2018-05-13T10:25:09.634Z,16.10
2018-05-13T10:27:41.163Z,14.80
2018-05-13T10:30:13.484Z,14.93
2018-05-13T10:32:44.510Z,15.30
2018-05-13T10:35:16.808Z,13.20
2018-05-13T10:37:47.665Z,14.60
2018-05-13T10:40:20.621Z,13.63
2018-05-13T10:42:51.937Z,15.07
2018-05-13T10:45:23.798Z,13.13
2018-05-13T10:47:55.785Z,14.00
2018-05-13T10:50:27.748Z,12.60
2018-05-13T10:52:58.765Z,13.23
2018-05-13T10:55:29.627Z,14.60
2018-05-13T10:58:00.555Z,15.50
2018-05-13T11:00:38.847Z,14.07
2018-05-13T11:03:09.732Z,14.17
2018-05-13T11:05:40.919Z,16.63
2018-05-13T11:08:27.134Z,14.70
2018-05-13T11:10:57.844Z,13.20
2018-05-13T11:13:29.951Z,14.20
2018-05-13T11:16:02.715Z,14.17
2018-05-13T11:18:34.339Z,14.80
2018-05-13T11:21:05.183Z,12.93
2018-05-13T11:23:36.610Z,13.00
2018-05-13T11:26:07.771Z,13.70
2018-05-13T11:28:38.638Z,13.17
2018-05-13T11:31:09.752Z,12.53
2018-05-13T11:33:41.637Z,12.60
2018-05-13T11:36:15.994Z,12.00
2018-05-13T11:38:49.062Z,12.40
2018-05-13T11:41:24.025Z,12.50
2018-05-13T11:43:56.330Z,12.03
2018-05-13T11:46:29.252Z,11.60
2018-05-13T11:49:01.016Z,11.43
2018-05-13T11:51:32.318Z,11.00
2018-05-13T11:54:03.014Z,12.50
2018-05-13T11:56:35.757Z,11.60
2018-05-13T11:59:06.793Z,11.50
2018-05-13T12:01:37.953Z,12.00
2018-05-13T12:04:11.802Z,12.17
2018-05-13T12:06:43.283Z,12.53
2018-05-13T12:09:15.365Z,11.57
2018-05-13T12:11:47.319Z,13.60
2018-05-13T12:14:19.604Z,12.20
2018-05-13T12:16:51.757Z,12.80
2018-05-13T12:19:23.002Z,12.00
2018-05-13T12:21:53.437Z,11.37
2018-05-13T12:24:23.872Z,12.57
2018-05-13T12:26:55.616Z,13.10
2018-05-13T12:29:26.159Z,12.90
2018-05-13T12:31:56.741Z,10.90
2018-05-13T12:34:27.148Z,13.10
2018-05-13T12:36:57.728Z,11.70
2018-05-13T12:39:28.113Z,11.57
2018-05-13T12:42:03.396Z,11.07
2018-05-13T12:44:33.818Z,11.90
2018-05-13T12:47:04.274Z,11.40
2018-05-13T12:49:35.027Z,11.77
2018-05-13T12:52:07.052Z,10.67
2018-05-13T12:54:37.677Z,12.23
2018-05-13T12:57:08.415Z,10.90
2018-05-13T12:59:39.273Z,10.00
2018-05-13T13:02:10.787Z,10.80
2018-05-13T13:04:42.186Z,10.70
2018-05-13T13:07:12.842Z,9.63
2018-05-13T13:09:43.242Z,10.40
2018-05-13T13:12:14.155Z,10.17
2018-05-13T13:14:45.136Z,10.20
2018-05-13T13:17:16.617Z,10.03
2018-05-13T13:19:47.030Z,10.30
2018-05-13T13:22:17.666Z,10.20
2018-05-13T13:24:48.291Z,10.40
2018-05-13T13:27:19.758Z,9.43
2018-05-13T13:29:50.164Z,10.80
2018-05-13T13:32:20.641Z,10.00
2018-05-13T13:34:51.743Z,10.97
2018-05-13T13:37:23.750Z,9.93
2018-05-13T13:39:54.277Z,9.53
2018-05-13T13:42:25.038Z,10.57
2018-05-13T13:44:55.571Z,10.20
2018-05-13T13:47:26.149Z,10.33
2018-05-13T13:49:56.497Z,11.80
2018-05-13T13:52:27.199Z,12.17
2018-05-13T13:54:58.277Z,11.07
2018-05-13T13:57:28.746Z,12.30
2018-05-13T14:00:00.505Z,11.30
2018-05-13T14:02:31.422Z,12.37
2018-05-13T14:05:02.019Z,12.00
2018-05-13T14:07:34.063Z,11.83
2018-05-13T14:10:04.686Z,12.13
2018-05-13T14:12:35.095Z,11.13
2018-05-13T14:15:07.162Z,12.20
2018-05-13T14:17:37.673Z,12.93
2018-05-13T14:20:08.210Z,14.10
2018-05-13T14:22:41.578Z,14.20
2018-05-13T14:25:12.038Z,14.40
2018-05-13T14:27:42.464Z,14.83
2018-05-13T14:30:13.074Z,16.43
2018-05-13T14:32:43.411Z,17.10
2018-05-13T14:35:14.559Z,17.03
2018-05-13T14:37:44.937Z,18.87
2018-05-13T14:40:15.508Z,21.90
2018-05-13T14:42:45.983Z,25.87
2018-05-13T14:45:16.515Z,28.60
2018-05-13T14:47:46.868Z,29.27
2018-05-13T14:50:17.158Z,11.60
2018-05-13T14:52:48.480Z,6.83
2018-05-13T14:55:18.845Z,9.97
2018-05-13T14:57:50.661Z,14.23
2018-05-13T15:00:21.113Z,15.57
2018-05-13T15:02:51.432Z,16.53
2018-05-13T15:05:22.994Z,20.37
2018-05-13T15:07:54.029Z,20.43
2018-05-13T15:10:25.099Z,17.30
2018-05-13T15:13:01.744Z,14.50
2018-05-13T15:15:32.058Z,14.30
2018-05-13T15:18:02.484Z,11.50
2018-05-13T15:20:32.803Z,11.60
2018-05-13T15:23:03.173Z,14.10
2018-05-13T15:25:33.468Z,12.57
2018-05-13T15:28:04.137Z,14.33
2018-05-13T15:30:34.429Z,14.00
2018-05-13T15:33:04.737Z,14.30
2018-05-13T15:35:35.019Z,13.93
2018-05-13T15:38:05.715Z,12.13
2018-05-13T15:40:35.989Z,12.53
2018-05-13T15:43:07.323Z,12.63
2018-05-13T15:45:37.518Z,13.53
2018-05-13T15:48:07.907Z,13.40
2018-05-13T15:50:38.217Z,13.63
2018-05-13T15:53:08.394Z,14.17
2018-05-13T15:55:38.697Z,14.47
2018-05-13T15:58:09.095Z,15.20
2018-05-13T16:00:39.326Z,15.17
2018-05-13T16:03:09.617Z,15.53
2018-05-13T16:05:39.863Z,15.50
2018-05-13T16:08:11.283Z,14.27
2018-05-13T16:10:50.360Z,14.23
2018-05-13T16:13:21.267Z,14.90
2018-05-13T16:15:51.591Z,15.80
2018-05-13T16:18:22.059Z,14.00
2018-05-13T16:20:53.120Z,13.40
2018-05-13T16:23:23.418Z,15.47
2018-05-13T16:25:53.637Z,15.30
2018-05-13T16:28:23.867Z,15.20
2018-05-13T16:30:54.214Z,14.13
2018-05-13T16:33:24.584Z,15.60
2018-05-13T16:35:55.008Z,14.47
2018-05-13T16:38:25.373Z,16.63
2018-05-13T16:40:55.608Z,15.33
2018-05-13T16:43:26.810Z,16.80
2018-05-13T16:45:57.879Z,17.00
2018-05-13T16:48:28.301Z,18.10
2018-05-13T16:50:58.962Z,16.83
2018-05-13T16:53:35.817Z,18.70
2018-05-13T16:56:08.069Z,20.80
2018-05-13T16:58:38.430Z,21.40
2018-05-13T17:01:13.119Z,21.20
2018-05-13T17:03:44.839Z,29.03
2018-05-13T17:06:15.782Z,30.03
2018-05-13T17:08:48.276Z,28.30
2018-05-13T17:11:18.825Z,33.87
2018-05-13T17:13:53.006Z,32.73
2018-05-13T17:16:23.236Z,33.90
2018-05-13T17:18:53.616Z,33.10
2018-05-13T17:21:23.865Z,29.40
2018-05-13T17:23:56.197Z,34.00
2018-05-13T17:26:26.622Z,34.90
2018-05-13T17:28:57.090Z,33.20
2018-05-13T17:31:28.194Z,30.33
2018-05-13T17:33:58.958Z,28.80
2018-05-13T17:36:29.490Z,30.07
2018-05-13T17:39:00.720Z,33.17
2018-05-13T17:41:31.083Z,37.33
2018-05-13T17:44:01.386Z,36.70
2018-05-13T17:46:32.397Z,39.13
2018-05-13T17:49:06.710Z,37.20
2018-05-13T17:51:37.280Z,37.07
2018-05-13T17:54:07.733Z,35.53
2018-05-13T17:56:38.306Z,36.27
2018-05-13T17:59:09.394Z,33.97
2018-05-13T18:01:43.205Z,36.53
2018-05-13T18:04:14.393Z,35.53
2018-05-13T18:06:46.263Z,38.97
2018-05-13T18:09:16.710Z,36.80
2018-05-13T18:11:48.091Z,36.17
2018-05-13T18:14:18.346Z,39.00
2018-05-13T18:16:49.340Z,37.17
2018-05-13T18:19:19.778Z,38.60
2018-05-13T18:21:51.357Z,38.33
2018-05-13T18:24:21.530Z,38.93
2018-05-13T18:26:51.865Z,38.07
2018-05-13T18:29:29.641Z,35.57
2018-05-13T18:31:59.825Z,39.47
2018-05-13T18:34:30.175Z,36.80
2018-05-13T18:37:01.773Z,40.20
2018-05-13T18:39:31.955Z,39.77
2018-05-13T18:42:02.675Z,39.23
2018-05-13T18:44:37.266Z,38.13
2018-05-13T18:47:07.722Z,36.30
2018-05-13T18:49:37.929Z,40.50
2018-05-13T18:52:08.252Z,36.63
2018-05-13T18:54:38.484Z,39.67
2018-05-13T18:57:09.119Z,39.17
2018-05-13T18:59:39.989Z,37.47
2018-05-13T19:02:14.032Z,38.90
2018-05-13T19:04:44.352Z,37.43
2018-05-13T19:07:15.329Z,38.23
2018-05-13T19:09:46.383Z,38.43
2018-05-13T19:12:17.291Z,38.80
2018-05-13T19:14:47.518Z,36.33
2018-05-13T19:17:17.708Z,34.77
2018-05-13T19:19:47.995Z,33.77
2018-05-13T19:22:18.226Z,40.70
2018-05-13T19:24:49.726Z,44.00
2018-05-13T19:27:19.901Z,45.80
2018-05-13T19:29:50.185Z,46.70
2018-05-13T19:32:25.994Z,47.40
2018-05-13T19:34:56.333Z,48.07
2018-05-13T19:37:26.579Z,48.43
2018-05-13T19:39:57.661Z,46.57
2018-05-13T19:42:28.802Z,41.73
2018-05-13T19:44:59.110Z,42.27
2018-05-13T19:47:29.523Z,43.20
2018-05-13T19:50:00.453Z,41.77
2018-05-13T19:52:30.754Z,43.60
2018-05-13T19:55:02.358Z,41.97
2018-05-13T19:57:32.869Z,39.13
2018-05-13T20:00:03.211Z,39.03
2018-05-13T20:02:33.614Z,38.67
2018-05-13T20:05:03.895Z,35.43
2018-05-13T20:07:38.352Z,40.33
2018-05-13T20:10:08.551Z,34.63
2018-05-13T20:12:39.958Z,36.47
2018-05-13T20:15:12.915Z,39.70
2018-05-13T20:17:43.172Z,36.10
2018-05-13T20:20:13.365Z,37.50
2018-05-13T20:22:44.810Z,38.30
2018-05-13T20:25:15.905Z,34.37
2018-05-13T20:27:46.226Z,37.07
2018-05-13T20:30:16.406Z,38.40
2018-05-13T20:32:48.509Z,36.43
2018-05-13T20:35:19.774Z,40.10
2018-05-13T20:37:50.923Z,38.30
2018-05-13T20:40:22.365Z,40.50
2018-05-13T20:42:56.747Z,40.57
2018-05-13T20:45:26.969Z,37.37
2018-05-13T20:47:57.113Z,37.47
2018-05-13T20:50:27.662Z,38.20
2018-05-13T20:52:57.930Z,37.60
2018-05-13T20:55:28.169Z,35.67
2018-05-13T20:58:09.837Z,38.33
2018-05-13T21:00:41.776Z,37.23
2018-05-13T21:03:11.962Z,38.40
2018-05-13T21:05:42.240Z,37.70
2018-05-13T21:08:13.207Z,37.20
2018-05-13T21:10:43.825Z,38.60
2018-05-13T21:13:15.363Z,36.30
2018-05-13T21:15:45.649Z,36.40
2018-05-13T21:18:17.286Z,38.00
2018-05-13T21:20:48.001Z,39.13
2018-05-13T21:23:19.107Z,35.30
2018-05-13T21:25:54.515Z,31.40
2018-05-13T21:28:24.690Z,36.67
2018-05-13T21:30:54.973Z,32.83
2018-05-13T21:33:25.224Z,34.73
2018-05-13T21:35:55.786Z,32.33
2018-05-13T21:38:25.937Z,33.20
2018-05-13T21:40:57.124Z,33.27
2018-05-13T21:43:27.424Z,33.83
2018-05-13T21:45:57.598Z,32.57
2018-05-13T21:48:32.728Z,28.50
2018-05-13T21:51:03.039Z,32.97
2018-05-13T21:53:35.090Z,30.47
2018-05-13T21:56:05.327Z,26.10
2018-05-13T21:58:35.946Z,26.40
2018-05-13T22:01:06.422Z,27.87
2018-05-13T22:03:37.395Z,26.07
2018-05-13T22:06:07.822Z,31.00
2018-05-13T22:08:38.103Z,29.03
2018-05-13T22:11:08.857Z,24.80
2018-05-13T22:13:45.413Z,26.90
2018-05-13T22:16:16.239Z,23.90
2018-05-13T22:18:50.199Z,26.60
2018-05-13T22:21:26.929Z,24.40
2018-05-13T22:23:58.633Z,23.47
2018-05-13T22:26:28.782Z,24.87
2018-05-13T22:28:59.157Z,24.80
2018-05-13T22:31:29.398Z,25.20
2018-05-13T22:33:59.618Z,23.90
2018-05-13T22:36:29.857Z,27.60
2018-05-13T22:39:00.279Z,24.10
2018-05-13T22:41:30.439Z,22.13
2018-05-13T22:44:00.734Z,23.93
2018-05-13T22:46:30.914Z,25.10
2018-05-13T22:49:01.170Z,24.77
2018-05-13T22:51:31.330Z,21.80
2018-05-13T22:54:02.229Z,21.37
2018-05-13T22:56:34.799Z,24.10
2018-05-13T22:59:05.043Z,22.87
2018-05-13T23:01:35.205Z,22.20
2018-05-13T23:04:05.357Z,20.83
2018-05-13T23:06:35.609Z,22.73
2018-05-13T23:09:05.876Z,23.43
2018-05-13T23:11:37.417Z,21.53
2018-05-13T23:14:09.278Z,23.80
2018-05-13T23:16:39.391Z,22.93
2018-05-13T23:19:10.261Z,20.53
2018-05-13T23:21:40.498Z,24.90
2018-05-13T23:24:10.674Z,24.37
2018-05-13T23:26:40.781Z,22.03
2018-05-13T23:29:10.925Z,23.90
2018-05-13T23:31:43.389Z,22.90
2018-05-13T23:34:13.530Z,22.50
2018-05-13T23:36:43.671Z,27.17
2018-05-13T23:39:14.150Z,25.33
2018-05-13T23:41:44.289Z,28.87
2018-05-13T23:44:14.413Z,28.23
2018-05-13T23:46:46.531Z,27.73
2018-05-13T23:49:16.775Z,26.63
2018-05-13T23:51:46.902Z,28.80
2018-05-13T23:54:17.010Z,30.20
2018-05-13T23:56:48.021Z,32.00
2018-05-13T23:59:18.183Z,28.87
